sensor_id;sensor_type;location;lat;lon;timestamp;P1;durP1;ratioP1;P2;durP2;ratioP2
62058;SDS011;48017;51.064;7.014;2023-02-01T00:00:31;8.00;;;3.75;;
62058;SDS011;48017;51.064;7.014;2023-02-01T00:02:58;6.95;;;3.38;;
62058;SDS011;48017;51.064;7.014;2023-02-01T00:05:23;11.55;;;4.07;;
62058;SDS011;48017;51.064;7.014;2023-02-01T00:07:49;8.18;;;3.80;;
62058;SDS011;48017;51.064;7.014;2023-02-01T00:10:14;8.65;;;3.58;;
62058;SDS011;48017;51.064;7.014;2023-02-01T00:12:40;10.02;;;3.70;;
62058;SDS011;48017;51.064;7.014;2023-02-01T00:15:05;12.45;;;3.58;;
62058;SDS011;48017;51.064;7.014;2023-02-01T00:17:31;11.77;;;4.10;;
62058;SDS011;48017;51.064;7.014;2023-02-01T00:19:56;7.40;;;4.00;;
62058;SDS011;48017;51.064;7.014;2023-02-01T00:22:21;11.43;;;3.67;;
62058;SDS011;48017;51.064;7.014;2023-02-01T00:24:47;8.38;;;3.42;;
62058;SDS011;48017;51.064;7.014;2023-02-01T00:27:12;10.75;;;3.85;;
62058;SDS011;48017;51.064;7.014;2023-02-01T00:29:42;9.63;;;3.15;;
62058;SDS011;48017;51.064;7.014;2023-02-01T00:32:08;9.75;;;3.80;;
62058;SDS011;48017;51.064;7.014;2023-02-01T00:34:34;8.73;;;3.70;;
62058;SDS011;48017;51.064;7.014;2023-02-01T00:36:59;9.10;;;3.42;;
62058;SDS011;48017;51.064;7.014;2023-02-01T00:39:25;13.70;;;3.58;;
62058;SDS011;48017;51.064;7.014;2023-02-01T00:41:50;12.35;;;4.13;;
62058;SDS011;48017;51.064;7.014;2023-02-01T00:44:16;8.13;;;3.33;;
62058;SDS011;48017;51.064;7.014;2023-02-01T00:46:41;12.18;;;3.55;;
62058;SDS011;48017;51.064;7.014;2023-02-01T00:49:07;13.05;;;3.88;;
62058;SDS011;48017;51.064;7.014;2023-02-01T00:51:34;14.50;;;3.08;;
62058;SDS011;48017;51.064;7.014;2023-02-01T00:53:59;13.02;;;3.72;;
62058;SDS011;48017;51.064;7.014;2023-02-01T00:56:25;8.80;;;3.13;;
62058;SDS011;48017;51.064;7.014;2023-02-01T00:58:52;14.70;;;4.07;;
62058;SDS011;48017;51.064;7.014;2023-02-01T01:01:19;14.75;;;3.38;;
62058;SDS011;48017;51.064;7.014;2023-02-01T01:03:51;8.75;;;2.92;;
62058;SDS011;48017;51.064;7.014;2023-02-01T01:06:22;9.95;;;2.83;;
62058;SDS011;48017;51.064;7.014;2023-02-01T01:08:52;7.13;;;2.85;;
62058;SDS011;48017;51.064;7.014;2023-02-01T01:11:20;6.80;;;2.65;;
62058;SDS011;48017;51.064;7.014;2023-02-01T01:13:51;4.60;;;2.35;;
62058;SDS011;48017;51.064;7.014;2023-02-01T01:16:18;6.15;;;1.92;;
62058;SDS011;48017;51.064;7.014;2023-02-01T01:18:45;5.18;;;2.30;;
62058;SDS011;48017;51.064;7.014;2023-02-01T01:21:11;11.52;;;2.55;;
62058;SDS011;48017;51.064;7.014;2023-02-01T01:23:38;11.82;;;2.30;;
62058;SDS011;48017;51.064;7.014;2023-02-01T01:26:05;7.93;;;2.00;;
62058;SDS011;48017;51.064;7.014;2023-02-01T01:28:32;8.02;;;2.42;;
62058;SDS011;48017;51.064;7.014;2023-02-01T01:30:57;8.77;;;1.90;;
62058;SDS011;48017;51.064;7.014;2023-02-01T01:33:23;8.60;;;2.10;;
62058;SDS011;48017;51.064;7.014;2023-02-01T01:35:48;9.10;;;2.10;;
62058;SDS011;48017;51.064;7.014;2023-02-01T01:38:13;6.40;;;2.13;;
62058;SDS011;48017;51.064;7.014;2023-02-01T01:40:39;8.45;;;1.67;;
62058;SDS011;48017;51.064;7.014;2023-02-01T01:43:09;7.75;;;1.65;;
62058;SDS011;48017;51.064;7.014;2023-02-01T01:45:39;7.63;;;2.00;;
62058;SDS011;48017;51.064;7.014;2023-02-01T01:48:16;8.20;;;1.80;;
62058;SDS011;48017;51.064;7.014;2023-02-01T01:50:52;6.18;;;1.58;;
62058;SDS011;48017;51.064;7.014;2023-02-01T01:53:24;9.15;;;2.15;;
62058;SDS011;48017;51.064;7.014;2023-02-01T01:55:56;5.22;;;1.60;;
62058;SDS011;48017;51.064;7.014;2023-02-01T01:58:22;6.07;;;2.10;;
62058;SDS011;48017;51.064;7.014;2023-02-01T02:00:51;6.38;;;2.08;;
62058;SDS011;48017;51.064;7.014;2023-02-01T02:05:50;7.03;;;1.85;;
62058;SDS011;48017;51.064;7.014;2023-02-01T02:08:19;10.13;;;1.90;;
62058;SDS011;48017;51.064;7.014;2023-02-01T02:10:47;7.57;;;1.50;;
62058;SDS011;48017;51.064;7.014;2023-02-01T02:45:19;8.00;;;1.95;;
62058;SDS011;48017;51.064;7.014;2023-02-01T02:50:46;10.88;;;1.88;;
62058;SDS011;48017;51.064;7.014;2023-02-01T02:53:48;8.18;;;2.00;;
62058;SDS011;48017;51.064;7.014;2023-02-01T02:56:45;7.55;;;1.67;;
62058;SDS011;48017;51.064;7.014;2023-02-01T02:59:30;6.72;;;1.60;;
62058;SDS011;48017;51.064;7.014;2023-02-01T03:02:18;6.80;;;2.13;;
62058;SDS011;48017;51.064;7.014;2023-02-01T03:05:03;7.15;;;2.70;;
62058;SDS011;48017;51.064;7.014;2023-02-01T03:13:03;13.77;;;2.30;;
62058;SDS011;48017;51.064;7.014;2023-02-01T03:21:25;4.15;;;1.83;;
62058;SDS011;48017;51.064;7.014;2023-02-01T03:23:56;6.70;;;2.05;;
62058;SDS011;48017;51.064;7.014;2023-02-01T03:26:27;11.95;;;2.20;;
62058;SDS011;48017;51.064;7.014;2023-02-01T03:28:56;6.50;;;1.92;;
62058;SDS011;48017;51.064;7.014;2023-02-01T03:31:27;14.48;;;2.72;;
62058;SDS011;48017;51.064;7.014;2023-02-01T03:33:53;5.78;;;1.80;;
62058;SDS011;48017;51.064;7.014;2023-02-01T03:44:23;9.93;;;2.25;;
62058;SDS011;48017;51.064;7.014;2023-02-01T03:49:30;9.43;;;2.30;;
62058;SDS011;48017;51.064;7.014;2023-02-01T03:51:57;6.68;;;2.08;;
62058;SDS011;48017;51.064;7.014;2023-02-01T03:54:24;9.85;;;2.47;;
62058;SDS011;48017;51.064;7.014;2023-02-01T03:56:52;18.75;;;2.70;;
62058;SDS011;48017;51.064;7.014;2023-02-01T03:59:20;13.00;;;2.50;;
62058;SDS011;48017;51.064;7.014;2023-02-01T04:01:46;13.32;;;3.10;;
62058;SDS011;48017;51.064;7.014;2023-02-01T04:04:11;8.63;;;2.60;;
62058;SDS011;48017;51.064;7.014;2023-02-01T04:06:44;8.30;;;1.92;;
62058;SDS011;48017;51.064;7.014;2023-02-01T04:09:16;7.88;;;2.03;;
62058;SDS011;48017;51.064;7.014;2023-02-01T04:11:42;5.60;;;1.70;;
62058;SDS011;48017;51.064;7.014;2023-02-01T04:14:07;11.30;;;2.45;;
62058;SDS011;48017;51.064;7.014;2023-02-01T04:16:33;8.45;;;2.38;;
62058;SDS011;48017;51.064;7.014;2023-02-01T04:18:59;9.45;;;2.05;;
62058;SDS011;48017;51.064;7.014;2023-02-01T04:21:25;13.80;;;2.50;;
62058;SDS011;48017;51.064;7.014;2023-02-01T04:23:51;10.05;;;2.72;;
62058;SDS011;48017;51.064;7.014;2023-02-01T04:26:17;11.18;;;2.88;;
62058;SDS011;48017;51.064;7.014;2023-02-01T04:28:44;11.63;;;1.77;;
62058;SDS011;48017;51.064;7.014;2023-02-01T04:31:09;5.30;;;1.65;;
62058;SDS011;48017;51.064;7.014;2023-02-01T04:33:34;6.45;;;1.92;;
62058;SDS011;48017;51.064;7.014;2023-02-01T04:36:00;5.25;;;2.00;;
62058;SDS011;48017;51.064;7.014;2023-02-01T04:38:25;12.38;;;2.80;;
62058;SDS011;48017;51.064;7.014;2023-02-01T04:40:51;10.43;;;2.60;;
62058;SDS011;48017;51.064;7.014;2023-02-01T04:43:17;11.05;;;1.88;;
62058;SDS011;48017;51.064;7.014;2023-02-01T04:45:46;5.50;;;1.90;;
62058;SDS011;48017;51.064;7.014;2023-02-01T04:48:13;7.00;;;1.83;;
62058;SDS011;48017;51.064;7.014;2023-02-01T04:50:39;10.05;;;1.98;;
62058;SDS011;48017;51.064;7.014;2023-02-01T04:53:04;9.55;;;1.88;;
62058;SDS011;48017;51.064;7.014;2023-02-01T04:55:29;6.63;;;1.92;;
62058;SDS011;48017;51.064;7.014;2023-02-01T04:57:55;8.82;;;1.98;;
62058;SDS011;48017;51.064;7.014;2023-02-01T05:00:21;5.68;;;1.92;;
62058;SDS011;48017;51.064;7.014;2023-02-01T05:02:47;11.45;;;2.00;;
62058;SDS011;48017;51.064;7.014;2023-02-01T05:05:12;9.73;;;2.08;;
62058;SDS011;48017;51.064;7.014;2023-02-01T05:07:38;6.22;;;2.10;;
62058;SDS011;48017;51.064;7.014;2023-02-01T05:10:03;10.40;;;1.77;;
62058;SDS011;48017;51.064;7.014;2023-02-01T05:12:29;8.15;;;2.03;;
62058;SDS011;48017;51.064;7.014;2023-02-01T05:15:13;7.40;;;1.85;;
62058;SDS011;48017;51.064;7.014;2023-02-01T05:17:38;7.20;;;2.22;;
62058;SDS011;48017;51.064;7.014;2023-02-01T05:20:05;7.90;;;1.90;;
62058;SDS011;48017;51.064;7.014;2023-02-01T05:22:32;9.63;;;2.30;;
62058;SDS011;48017;51.064;7.014;2023-02-01T05:24:57;7.57;;;1.73;;
62058;SDS011;48017;51.064;7.014;2023-02-01T05:27:23;11.63;;;2.35;;
62058;SDS011;48017;51.064;7.014;2023-02-01T05:29:48;7.32;;;2.03;;
62058;SDS011;48017;51.064;7.014;2023-02-01T05:32:14;10.45;;;2.25;;
62058;SDS011;48017;51.064;7.014;2023-02-01T05:34:39;5.95;;;1.85;;
62058;SDS011;48017;51.064;7.014;2023-02-01T05:37:05;5.68;;;1.70;;
62058;SDS011;48017;51.064;7.014;2023-02-01T05:39:30;12.30;;;2.38;;
62058;SDS011;48017;51.064;7.014;2023-02-01T05:41:55;9.15;;;2.35;;
62058;SDS011;48017;51.064;7.014;2023-02-01T05:44:21;8.15;;;1.75;;
62058;SDS011;48017;51.064;7.014;2023-02-01T05:46:46;5.05;;;1.67;;
62058;SDS011;48017;51.064;7.014;2023-02-01T05:49:11;12.35;;;1.92;;
62058;SDS011;48017;51.064;7.014;2023-02-01T05:51:37;9.32;;;1.55;;
62058;SDS011;48017;51.064;7.014;2023-02-01T05:54:02;10.05;;;1.55;;
62058;SDS011;48017;51.064;7.014;2023-02-01T05:56:27;14.48;;;2.30;;
62058;SDS011;48017;51.064;7.014;2023-02-01T05:58:53;6.80;;;1.67;;
62058;SDS011;48017;51.064;7.014;2023-02-01T06:01:18;10.50;;;2.03;;
62058;SDS011;48017;51.064;7.014;2023-02-01T06:03:43;4.47;;;1.40;;
62058;SDS011;48017;51.064;7.014;2023-02-01T06:06:09;7.00;;;1.67;;
62058;SDS011;48017;51.064;7.014;2023-02-01T06:08:34;11.20;;;2.45;;
62058;SDS011;48017;51.064;7.014;2023-02-01T06:11:00;7.30;;;1.98;;
62058;SDS011;48017;51.064;7.014;2023-02-01T06:13:28;8.35;;;1.65;;
62058;SDS011;48017;51.064;7.014;2023-02-01T06:15:53;6.72;;;1.77;;
62058;SDS011;48017;51.064;7.014;2023-02-01T06:18:20;10.32;;;2.00;;
62058;SDS011;48017;51.064;7.014;2023-02-01T06:20:51;8.75;;;1.60;;
62058;SDS011;48017;51.064;7.014;2023-02-01T06:23:20;15.02;;;2.92;;
62058;SDS011;48017;51.064;7.014;2023-02-01T06:25:49;8.15;;;1.80;;
62058;SDS011;48017;51.064;7.014;2023-02-01T06:28:15;8.15;;;1.80;;
62058;SDS011;48017;51.064;7.014;2023-02-01T06:30:41;9.25;;;2.63;;
62058;SDS011;48017;51.064;7.014;2023-02-01T06:33:10;11.07;;;1.73;;
62058;SDS011;48017;51.064;7.014;2023-02-01T06:35:36;6.13;;;1.63;;
62058;SDS011;48017;51.064;7.014;2023-02-01T06:38:01;8.57;;;1.92;;
62058;SDS011;48017;51.064;7.014;2023-02-01T06:40:27;11.13;;;1.58;;
62058;SDS011;48017;51.064;7.014;2023-02-01T06:42:52;8.48;;;1.80;;
62058;SDS011;48017;51.064;7.014;2023-02-01T06:45:17;14.88;;;1.98;;
62058;SDS011;48017;51.064;7.014;2023-02-01T06:47:43;13.40;;;2.10;;
62058;SDS011;48017;51.064;7.014;2023-02-01T06:50:09;8.20;;;2.38;;
62058;SDS011;48017;51.064;7.014;2023-02-01T06:52:35;8.73;;;1.90;;
62058;SDS011;48017;51.064;7.014;2023-02-01T06:55:00;5.80;;;1.52;;
62058;SDS011;48017;51.064;7.014;2023-02-01T06:57:25;9.85;;;1.88;;
62058;SDS011;48017;51.064;7.014;2023-02-01T06:59:55;9.57;;;1.70;;
62058;SDS011;48017;51.064;7.014;2023-02-01T07:02:20;8.30;;;1.70;;
62058;SDS011;48017;51.064;7.014;2023-02-01T07:04:46;9.93;;;2.38;;
62058;SDS011;48017;51.064;7.014;2023-02-01T07:07:12;9.05;;;1.85;;
62058;SDS011;48017;51.064;7.014;2023-02-01T07:09:37;13.60;;;2.00;;
62058;SDS011;48017;51.064;7.014;2023-02-01T07:14:31;4.75;;;1.60;;
62058;SDS011;48017;51.064;7.014;2023-02-01T07:16:57;12.32;;;2.25;;
62058;SDS011;48017;51.064;7.014;2023-02-01T07:19:22;9.48;;;2.20;;
62058;SDS011;48017;51.064;7.014;2023-02-01T07:21:47;17.23;;;2.20;;
62058;SDS011;48017;51.064;7.014;2023-02-01T07:24:13;8.73;;;2.20;;
62058;SDS011;48017;51.064;7.014;2023-02-01T07:26:39;8.35;;;2.17;;
62058;SDS011;48017;51.064;7.014;2023-02-01T07:29:04;11.20;;;1.52;;
62058;SDS011;48017;51.064;7.014;2023-02-01T07:31:30;12.80;;;2.10;;
62058;SDS011;48017;51.064;7.014;2023-02-01T07:33:55;9.68;;;2.15;;
62058;SDS011;48017;51.064;7.014;2023-02-01T07:36:22;10.00;;;1.85;;
62058;SDS011;48017;51.064;7.014;2023-02-01T07:38:48;9.55;;;1.70;;
62058;SDS011;48017;51.064;7.014;2023-02-01T07:41:13;16.73;;;2.42;;
62058;SDS011;48017;51.064;7.014;2023-02-01T07:43:40;6.95;;;1.80;;
62058;SDS011;48017;51.064;7.014;2023-02-01T07:46:05;5.60;;;1.77;;
62058;SDS011;48017;51.064;7.014;2023-02-01T07:48:32;6.55;;;1.65;;
62058;SDS011;48017;51.064;7.014;2023-02-01T07:51:05;6.85;;;2.53;;
62058;SDS011;48017;51.064;7.014;2023-02-01T07:53:34;9.23;;;2.08;;
62058;SDS011;48017;51.064;7.014;2023-02-01T07:56:00;9.65;;;2.30;;
62058;SDS011;48017;51.064;7.014;2023-02-01T07:58:26;7.75;;;1.92;;
62058;SDS011;48017;51.064;7.014;2023-02-01T08:00:52;6.28;;;1.70;;
62058;SDS011;48017;51.064;7.014;2023-02-01T08:03:36;10.05;;;2.30;;
62058;SDS011;48017;51.064;7.014;2023-02-01T08:06:02;9.80;;;1.65;;
62058;SDS011;48017;51.064;7.014;2023-02-01T08:08:27;10.35;;;2.00;;
62058;SDS011;48017;51.064;7.014;2023-02-01T08:10:59;12.40;;;2.60;;
62058;SDS011;48017;51.064;7.014;2023-02-01T08:13:26;6.38;;;1.45;;
62058;SDS011;48017;51.064;7.014;2023-02-01T08:15:52;7.70;;;1.80;;
62058;SDS011;48017;51.064;7.014;2023-02-01T08:18:17;6.82;;;2.17;;
62058;SDS011;48017;51.064;7.014;2023-02-01T08:20:43;8.88;;;1.75;;
62058;SDS011;48017;51.064;7.014;2023-02-01T08:23:11;8.85;;;1.58;;
62058;SDS011;48017;51.064;7.014;2023-02-01T08:25:36;8.43;;;2.13;;
62058;SDS011;48017;51.064;7.014;2023-02-01T08:28:02;7.07;;;1.40;;
62058;SDS011;48017;51.064;7.014;2023-02-01T08:30:28;8.25;;;1.75;;
62058;SDS011;48017;51.064;7.014;2023-02-01T08:32:54;4.93;;;1.77;;
62058;SDS011;48017;51.064;7.014;2023-02-01T08:35:19;7.43;;;1.75;;
62058;SDS011;48017;51.064;7.014;2023-02-01T08:37:44;13.60;;;2.00;;
62058;SDS011;48017;51.064;7.014;2023-02-01T08:40:10;7.18;;;1.83;;
62058;SDS011;48017;51.064;7.014;2023-02-01T08:42:35;7.15;;;2.22;;
62058;SDS011;48017;51.064;7.014;2023-02-01T08:45:17;4.72;;;1.77;;
62058;SDS011;48017;51.064;7.014;2023-02-01T08:47:44;14.73;;;2.47;;
62058;SDS011;48017;51.064;7.014;2023-02-01T08:50:09;4.97;;;1.60;;
62058;SDS011;48017;51.064;7.014;2023-02-01T08:52:35;10.05;;;1.80;;
62058;SDS011;48017;51.064;7.014;2023-02-01T08:55:01;6.47;;;2.00;;
62058;SDS011;48017;51.064;7.014;2023-02-01T08:57:26;10.73;;;2.17;;
62058;SDS011;48017;51.064;7.014;2023-02-01T08:59:52;14.60;;;1.67;;
62058;SDS011;48017;51.064;7.014;2023-02-01T09:02:17;9.38;;;1.65;;
62058;SDS011;48017;51.064;7.014;2023-02-01T09:04:43;12.20;;;2.60;;
62058;SDS011;48017;51.064;7.014;2023-02-01T09:07:09;7.03;;;1.90;;
62058;SDS011;48017;51.064;7.014;2023-02-01T09:09:34;14.45;;;3.15;;
62058;SDS011;48017;51.064;7.014;2023-02-01T09:12:00;8.50;;;1.92;;
62058;SDS011;48017;51.064;7.014;2023-02-01T09:14:27;11.10;;;1.88;;
62058;SDS011;48017;51.064;7.014;2023-02-01T09:16:52;9.68;;;2.10;;
62058;SDS011;48017;51.064;7.014;2023-02-01T09:19:18;7.68;;;1.90;;
62058;SDS011;48017;51.064;7.014;2023-02-01T09:21:43;9.05;;;1.85;;
62058;SDS011;48017;51.064;7.014;2023-02-01T09:24:09;6.47;;;1.70;;
62058;SDS011;48017;51.064;7.014;2023-02-01T09:26:36;9.15;;;2.58;;
62058;SDS011;48017;51.064;7.014;2023-02-01T09:29:02;8.18;;;2.00;;
62058;SDS011;48017;51.064;7.014;2023-02-01T09:31:28;7.20;;;1.70;;
62058;SDS011;48017;51.064;7.014;2023-02-01T09:33:55;13.05;;;2.10;;
62058;SDS011;48017;51.064;7.014;2023-02-01T09:36:21;15.23;;;2.35;;
62058;SDS011;48017;51.064;7.014;2023-02-01T09:38:48;5.53;;;1.83;;
62058;SDS011;48017;51.064;7.014;2023-02-01T09:46:57;16.70;;;2.15;;
62058;SDS011;48017;51.064;7.014;2023-02-01T09:49:51;11.10;;;1.92;;
62058;SDS011;48017;51.064;7.014;2023-02-01T10:29:41;8.02;;;1.75;;
62058;SDS011;48017;51.064;7.014;2023-02-01T10:32:22;4.95;;;1.88;;
62058;SDS011;48017;51.064;7.014;2023-02-01T10:34:57;7.28;;;2.30;;
62058;SDS011;48017;51.064;7.014;2023-02-01T10:37:31;11.77;;;2.40;;
62058;SDS011;48017;51.064;7.014;2023-02-01T10:43:00;13.75;;;3.13;;
62058;SDS011;48017;51.064;7.014;2023-02-01T10:45:28;10.02;;;2.03;;
62058;SDS011;48017;51.064;7.014;2023-02-01T10:47:56;7.65;;;1.40;;
62058;SDS011;48017;51.064;7.014;2023-02-01T10:56:10;11.52;;;3.17;;
62058;SDS011;48017;51.064;7.014;2023-02-01T10:58:42;8.82;;;1.83;;
62058;SDS011;48017;51.064;7.014;2023-02-01T11:01:14;10.77;;;2.20;;
62058;SDS011;48017;51.064;7.014;2023-02-01T11:03:55;6.10;;;1.60;;
62058;SDS011;48017;51.064;7.014;2023-02-01T11:06:25;8.63;;;1.85;;
62058;SDS011;48017;51.064;7.014;2023-02-01T11:09:10;11.18;;;3.13;;
62058;SDS011;48017;51.064;7.014;2023-02-01T11:14:14;9.50;;;1.73;;
62058;SDS011;48017;51.064;7.014;2023-02-01T11:19:57;5.60;;;1.75;;
62058;SDS011;48017;51.064;7.014;2023-02-01T11:22:38;9.18;;;2.42;;
62058;SDS011;48017;51.064;7.014;2023-02-01T11:25:12;12.18;;;2.67;;
62058;SDS011;48017;51.064;7.014;2023-02-01T11:27:40;8.00;;;2.25;;
62058;SDS011;48017;51.064;7.014;2023-02-01T11:30:06;11.68;;;2.28;;
62058;SDS011;48017;51.064;7.014;2023-02-01T11:32:32;11.05;;;2.53;;
62058;SDS011;48017;51.064;7.014;2023-02-01T11:35:04;3.90;;;1.27;;
62058;SDS011;48017;51.064;7.014;2023-02-01T11:37:32;7.22;;;2.10;;
62058;SDS011;48017;51.064;7.014;2023-02-01T11:40:02;6.68;;;1.75;;
62058;SDS011;48017;51.064;7.014;2023-02-01T11:42:54;4.75;;;1.90;;
62058;SDS011;48017;51.064;7.014;2023-02-01T11:45:32;8.50;;;2.20;;
62058;SDS011;48017;51.064;7.014;2023-02-01T11:48:00;9.25;;;2.70;;
62058;SDS011;48017;51.064;7.014;2023-02-01T11:58:18;8.02;;;1.90;;
62058;SDS011;48017;51.064;7.014;2023-02-01T12:11:59;4.45;;;1.48;;
62058;SDS011;48017;51.064;7.014;2023-02-01T12:23:04;10.00;;;1.73;;
62058;SDS011;48017;51.064;7.014;2023-02-01T12:25:54;9.40;;;1.98;;
62058;SDS011;48017;51.064;7.014;2023-02-01T12:42:32;9.05;;;1.80;;
62058;SDS011;48017;51.064;7.014;2023-02-01T12:47:57;8.13;;;1.77;;
62058;SDS011;48017;51.064;7.014;2023-02-01T12:50:43;4.82;;;2.00;;
62058;SDS011;48017;51.064;7.014;2023-02-01T12:55:49;9.43;;;1.75;;
62058;SDS011;48017;51.064;7.014;2023-02-01T12:58:23;7.80;;;1.88;;
62058;SDS011;48017;51.064;7.014;2023-02-01T13:00:57;5.30;;;1.60;;
62058;SDS011;48017;51.064;7.014;2023-02-01T13:08:52;7.03;;;1.92;;
62058;SDS011;48017;51.064;7.014;2023-02-01T13:14:00;6.90;;;1.85;;
62058;SDS011;48017;51.064;7.014;2023-02-01T13:16:32;8.18;;;1.67;;
62058;SDS011;48017;51.064;7.014;2023-02-01T13:19:13;6.65;;;1.75;;
62058;SDS011;48017;51.064;7.014;2023-02-01T13:21:51;11.00;;;1.75;;
62058;SDS011;48017;51.064;7.014;2023-02-01T13:26:54;4.97;;;1.42;;
62058;SDS011;48017;51.064;7.014;2023-02-01T13:29:20;4.03;;;1.55;;
62058;SDS011;48017;51.064;7.014;2023-02-01T13:40:17;6.20;;;1.52;;
62058;SDS011;48017;51.064;7.014;2023-02-01T13:45:17;7.03;;;2.03;;
62058;SDS011;48017;51.064;7.014;2023-02-01T13:47:50;6.53;;;1.65;;
62058;SDS011;48017;51.064;7.014;2023-02-01T13:52:43;10.77;;;2.00;;
62058;SDS011;48017;51.064;7.014;2023-02-01T13:55:23;7.28;;;1.38;;
62058;SDS011;48017;51.064;7.014;2023-02-01T13:57:52;7.93;;;1.63;;
62058;SDS011;48017;51.064;7.014;2023-02-01T14:13:13;7.90;;;1.30;;
62058;SDS011;48017;51.064;7.014;2023-02-01T14:23:41;6.80;;;1.52;;
62058;SDS011;48017;51.064;7.014;2023-02-01T14:28:36;5.77;;;1.57;;
62058;SDS011;48017;51.064;7.014;2023-02-01T14:31:17;8.73;;;1.52;;
62058;SDS011;48017;51.064;7.014;2023-02-01T14:33:58;5.70;;;1.40;;
62058;SDS011;48017;51.064;7.014;2023-02-01T14:36:26;4.03;;;1.20;;
62058;SDS011;48017;51.064;7.014;2023-02-01T14:39:16;8.80;;;1.65;;
62058;SDS011;48017;51.064;7.014;2023-02-01T14:41:45;9.20;;;1.85;;
62058;SDS011;48017;51.064;7.014;2023-02-01T14:49:35;7.07;;;1.60;;
62058;SDS011;48017;51.064;7.014;2023-02-01T14:52:09;5.25;;;1.50;;
62058;SDS011;48017;51.064;7.014;2023-02-01T14:54:39;6.03;;;1.40;;
62058;SDS011;48017;51.064;7.014;2023-02-01T14:57:04;6.93;;;1.10;;
62058;SDS011;48017;51.064;7.014;2023-02-01T14:59:37;7.50;;;1.45;;
62058;SDS011;48017;51.064;7.014;2023-02-01T15:02:07;4.97;;;1.42;;
62058;SDS011;48017;51.064;7.014;2023-02-01T15:04:50;10.60;;;1.42;;
62058;SDS011;48017;51.064;7.014;2023-02-01T15:07:19;9.75;;;1.58;;
62058;SDS011;48017;51.064;7.014;2023-02-01T15:09:47;12.23;;;1.60;;
62058;SDS011;48017;51.064;7.014;2023-02-01T15:12:17;4.90;;;1.30;;
62058;SDS011;48017;51.064;7.014;2023-02-01T15:20:19;4.38;;;1.00;;
62058;SDS011;48017;51.064;7.014;2023-02-01T15:23:20;9.88;;;1.98;;
62058;SDS011;48017;51.064;7.014;2023-02-01T15:25:44;9.95;;;1.70;;
62058;SDS011;48017;51.064;7.014;2023-02-01T15:28:12;7.75;;;1.50;;
62058;SDS011;48017;51.064;7.014;2023-02-01T15:30:39;16.58;;;2.13;;
62058;SDS011;48017;51.064;7.014;2023-02-01T15:33:13;5.10;;;1.30;;
62058;SDS011;48017;51.064;7.014;2023-02-01T15:35:46;9.02;;;1.90;;
62058;SDS011;48017;51.064;7.014;2023-02-01T15:41:04;6.32;;;1.25;;
62058;SDS011;48017;51.064;7.014;2023-02-01T15:43:37;9.85;;;1.73;;
62058;SDS011;48017;51.064;7.014;2023-02-01T15:49:19;5.25;;;1.58;;
62058;SDS011;48017;51.064;7.014;2023-02-01T15:51:49;5.22;;;1.30;;
62058;SDS011;48017;51.064;7.014;2023-02-01T15:54:16;9.05;;;1.45;;
62058;SDS011;48017;51.064;7.014;2023-02-01T15:56:46;6.80;;;1.52;;
62058;SDS011;48017;51.064;7.014;2023-02-01T15:59:19;8.05;;;1.50;;
62058;SDS011;48017;51.064;7.014;2023-02-01T16:01:50;9.25;;;1.92;;
62058;SDS011;48017;51.064;7.014;2023-02-01T16:04:17;3.47;;;1.10;;
62058;SDS011;48017;51.064;7.014;2023-02-01T16:06:46;5.72;;;1.25;;
62058;SDS011;48017;51.064;7.014;2023-02-01T16:09:14;4.80;;;1.35;;
62058;SDS011;48017;51.064;7.014;2023-02-01T16:11:42;4.82;;;1.42;;
62058;SDS011;48017;51.064;7.014;2023-02-01T16:14:13;6.15;;;1.35;;
62058;SDS011;48017;51.064;7.014;2023-02-01T16:16:39;5.50;;;1.58;;
62058;SDS011;48017;51.064;7.014;2023-02-01T16:19:05;6.07;;;1.52;;
62058;SDS011;48017;51.064;7.014;2023-02-01T16:21:30;9.50;;;2.13;;
62058;SDS011;48017;51.064;7.014;2023-02-01T16:23:55;9.80;;;2.00;;
62058;SDS011;48017;51.064;7.014;2023-02-01T16:26:21;13.35;;;1.98;;
62058;SDS011;48017;51.064;7.014;2023-02-01T16:28:47;7.63;;;1.58;;
62058;SDS011;48017;51.064;7.014;2023-02-01T16:31:14;7.68;;;1.38;;
62058;SDS011;48017;51.064;7.014;2023-02-01T16:33:48;4.38;;;1.50;;
62058;SDS011;48017;51.064;7.014;2023-02-01T16:36:14;3.17;;;1.45;;
62058;SDS011;48017;51.064;7.014;2023-02-01T16:38:41;8.25;;;1.95;;
62058;SDS011;48017;51.064;7.014;2023-02-01T16:41:06;7.90;;;1.88;;
62058;SDS011;48017;51.064;7.014;2023-02-01T16:43:33;11.27;;;1.90;;
62058;SDS011;48017;51.064;7.014;2023-02-01T16:45:59;5.38;;;1.63;;
62058;SDS011;48017;51.064;7.014;2023-02-01T16:48:29;11.60;;;2.30;;
62058;SDS011;48017;51.064;7.014;2023-02-01T16:51:12;8.18;;;1.90;;
62058;SDS011;48017;51.064;7.014;2023-02-01T16:53:40;6.72;;;1.67;;
62058;SDS011;48017;51.064;7.014;2023-02-01T16:56:12;4.78;;;1.55;;
62058;SDS011;48017;51.064;7.014;2023-02-01T16:58:39;7.80;;;2.03;;
62058;SDS011;48017;51.064;7.014;2023-02-01T17:01:06;6.05;;;1.58;;
62058;SDS011;48017;51.064;7.014;2023-02-01T17:03:31;10.77;;;2.08;;
62058;SDS011;48017;51.064;7.014;2023-02-01T17:05:57;8.90;;;2.10;;
62058;SDS011;48017;51.064;7.014;2023-02-01T17:08:33;4.88;;;1.23;;
62058;SDS011;48017;51.064;7.014;2023-02-01T17:11:00;4.20;;;1.23;;
62058;SDS011;48017;51.064;7.014;2023-02-01T17:13:26;7.57;;;2.22;;
62058;SDS011;48017;51.064;7.014;2023-02-01T17:15:56;12.75;;;2.05;;
62058;SDS011;48017;51.064;7.014;2023-02-01T17:18:24;8.75;;;1.70;;
62058;SDS011;48017;51.064;7.014;2023-02-01T17:20:55;9.27;;;1.83;;
62058;SDS011;48017;51.064;7.014;2023-02-01T17:23:25;7.60;;;1.52;;
62058;SDS011;48017;51.064;7.014;2023-02-01T17:25:52;8.38;;;1.80;;
62058;SDS011;48017;51.064;7.014;2023-02-01T17:28:18;7.00;;;1.83;;
62058;SDS011;48017;51.064;7.014;2023-02-01T17:30:43;7.95;;;1.88;;
62058;SDS011;48017;51.064;7.014;2023-02-01T17:33:12;8.98;;;1.75;;
62058;SDS011;48017;51.064;7.014;2023-02-01T17:35:44;12.00;;;2.10;;
62058;SDS011;48017;51.064;7.014;2023-02-01T17:38:10;6.75;;;2.40;;
62058;SDS011;48017;51.064;7.014;2023-02-01T17:40:36;7.68;;;2.10;;
62058;SDS011;48017;51.064;7.014;2023-02-01T17:43:02;7.60;;;1.67;;
62058;SDS011;48017;51.064;7.014;2023-02-01T17:45:34;10.15;;;1.60;;
62058;SDS011;48017;51.064;7.014;2023-02-01T17:48:03;7.50;;;1.80;;
62058;SDS011;48017;51.064;7.014;2023-02-01T17:50:30;8.32;;;1.73;;
62058;SDS011;48017;51.064;7.014;2023-02-01T17:52:57;4.80;;;1.50;;
62058;SDS011;48017;51.064;7.014;2023-02-01T17:55:23;11.25;;;1.98;;
62058;SDS011;48017;51.064;7.014;2023-02-01T17:57:50;13.68;;;2.08;;
62058;SDS011;48017;51.064;7.014;2023-02-01T18:00:16;4.32;;;1.58;;
62058;SDS011;48017;51.064;7.014;2023-02-01T18:02:43;6.63;;;1.77;;
62058;SDS011;48017;51.064;7.014;2023-02-01T18:05:13;9.05;;;1.70;;
62058;SDS011;48017;51.064;7.014;2023-02-01T18:07:38;6.75;;;1.45;;
62058;SDS011;48017;51.064;7.014;2023-02-01T18:10:04;8.60;;;1.60;;
62058;SDS011;48017;51.064;7.014;2023-02-01T18:12:29;4.75;;;1.45;;
62058;SDS011;48017;51.064;7.014;2023-02-01T18:14:57;10.38;;;1.60;;
62058;SDS011;48017;51.064;7.014;2023-02-01T18:17:22;7.13;;;1.70;;
62058;SDS011;48017;51.064;7.014;2023-02-01T18:19:48;5.03;;;1.63;;
62058;SDS011;48017;51.064;7.014;2023-02-01T18:22:17;6.93;;;1.70;;
62058;SDS011;48017;51.064;7.014;2023-02-01T18:24:45;5.63;;;1.60;;
62058;SDS011;48017;51.064;7.014;2023-02-01T18:27:11;8.43;;;1.85;;
62058;SDS011;48017;51.064;7.014;2023-02-01T18:29:36;3.47;;;1.40;;
62058;SDS011;48017;51.064;7.014;2023-02-01T18:32:02;5.47;;;1.48;;
62058;SDS011;48017;51.064;7.014;2023-02-01T18:34:27;7.05;;;1.65;;
62058;SDS011;48017;51.064;7.014;2023-02-01T18:36:54;9.93;;;1.70;;
62058;SDS011;48017;51.064;7.014;2023-02-01T18:39:19;6.90;;;1.80;;
62058;SDS011;48017;51.064;7.014;2023-02-01T18:41:45;8.30;;;1.40;;